^^
Saratoga-Weather Station Historical Data
Daily Summary for June 3, 2021 Units:  Both    English   Metric
Daily Weekly Monthly Yearly Custom
  High: Low: Average:
Temperature: 34.3 °F /  1.3 °C 31.5 °F /  -0.3 °C 33.6 °F /  0.9 °C
Dew Point: 32 °F /  0 °C 29.5 °F /  -1.4 °C 31.3 °F /  -0.4 °C
Humidity: 94% 88% 91%
Wind Speed: 6.9mph /  11.1km/h - 1.1mph /  1.7km/h
Wind Gust: 10mph /  16.1km/h - -
Wind- - West
Pressure: 30 in /  1014.6 hPa 29.9 in /  1012.2 hPa -
Precipitation: 0 in /  0.0 mm    
Historical Graphs
 
 
Tabular Data for June 3, 2021
Time Temperature Dew Point Pressure Wind Wind Speed Wind Gust Humidity Rainfall Rate (Hourly) solar
00:03 34 °F /  1.1 °C 30.7 °F /  -0.7 °C 29.9in /  1012.2hPa Calm   1mph /  1.6km/h 88% 0in /  0.0mm 0 W/m2
00:08 33.6 °F /  0.9 °C 30.4 °F /  -0.9 °C 29.9in /  1012.2hPa Calm     88% 0in /  0.0mm 0 W/m2
00:13 33.6 °F /  0.9 °C 30.7 °F /  -0.7 °C 29.9in /  1012.2hPa West 0.9mph /  1.4km/h 1mph /  1.6km/h 89% 0in /  0.0mm 0 W/m2
00:18 33.4 °F /  0.8 °C 30.6 °F /  -0.8 °C 29.9in /  1012.2hPa Calm     89% 0in /  0.0mm 0 W/m2
00:23 33.3 °F /  0.7 °C 30.6 °F /  -0.8 °C 29.9in /  1012.5hPa Calm     90% 0in /  0.0mm 0 W/m2
00:28 33.1 °F /  0.6 °C 30.7 °F /  -0.7 °C 29.9in /  1012.5hPa Calm     91% 0in /  0.0mm 0 W/m2
00:33 33.1 °F /  0.6 °C 30.7 °F /  -0.7 °C 29.9in /  1012.5hPa Calm     91% 0in /  0.0mm 0 W/m2
00:38 33.1 °F /  0.6 °C 31.1 °F /  -0.5 °C 29.9in /  1012.5hPa Calm   1mph /  1.6km/h 92% 0in /  0.0mm 0 W/m2
00:43 33.1 °F /  0.6 °C 31.1 °F /  -0.5 °C 29.9in /  1012.2hPa Calm   2mph /  3.2km/h 92% 0in /  0.0mm 0 W/m2
00:48 33.3 °F /  0.7 °C 31.1 °F /  -0.5 °C 29.9in /  1012.5hPa WNW 0.9mph /  1.4km/h 3mph /  4.8km/h 92% 0in /  0.0mm 0 W/m2
00:53 33.4 °F /  0.8 °C 31.3 °F /  -0.4 °C 29.9in /  1012.5hPa Calm   1mph /  1.6km/h 92% 0in /  0.0mm 0 W/m2
00:58 33.6 °F /  0.9 °C 31.5 °F /  -0.3 °C 29.9in /  1012.5hPa Calm     92% 0in /  0.0mm 0 W/m2
01:03 33.8 °F /  1 °C 31.6 °F /  -0.2 °C 29.9in /  1012.9hPa Calm     92% 0in /  0.0mm 0 W/m2
01:08 33.8 °F /  1 °C 31.5 °F /  -0.3 °C 29.9in /  1012.9hPa West 0.9mph /  1.4km/h 1mph /  1.6km/h 91% 0in /  0.0mm 0 W/m2
01:13 33.8 °F /  1 °C 31.5 °F /  -0.3 °C 29.9in /  1012.9hPa Calm     91% 0in /  0.0mm 0 W/m2
01:18 34 °F /  1.1 °C 31.6 °F /  -0.2 °C 29.9in /  1012.9hPa West 0.9mph /  1.4km/h 1mph /  1.6km/h 91% 0in /  0.0mm 0 W/m2
01:23 34 °F /  1.1 °C 31.6 °F /  -0.2 °C 29.9in /  1012.9hPa Calm   2mph /  3.2km/h 91% 0in /  0.0mm 0 W/m2
01:28 34.2 °F /  1.2 °C 31.8 °F /  -0.1 °C 29.9in /  1012.9hPa West 0.9mph /  1.4km/h 2mph /  3.2km/h 91% 0in /  0.0mm 0 W/m2
01:33 34.2 °F /  1.2 °C 31.8 °F /  -0.1 °C 29.9in /  1012.9hPa West 0.9mph /  1.4km/h 1mph /  1.6km/h 91% 0in /  0.0mm 0 W/m2
01:38 34.3 °F /  1.3 °C 32 °F /  0 °C 29.9in /  1012.9hPa Calm   2mph /  3.2km/h 91% 0in /  0.0mm 0 W/m2
01:43 34.2 °F /  1.2 °C 31.5 °F /  -0.3 °C 29.9in /  1012.9hPa WNW 2mph /  3.2km/h 3mph /  4.8km/h 90% 0in /  0.0mm 0 W/m2
01:48 34.2 °F /  1.2 °C 31.5 °F /  -0.3 °C 29.9in /  1012.9hPa Calm   3mph /  4.8km/h 90% 0in /  0.0mm 0 W/m2
01:53 34.2 °F /  1.2 °C 31.5 °F /  -0.3 °C 29.9in /  1013.2hPa West 2mph /  3.2km/h 7mph /  11.3km/h 90% 0in /  0.0mm 0 W/m2
01:58 34.3 °F /  1.3 °C 31.6 °F /  -0.2 °C 29.9in /  1013.2hPa WNW 6mph /  9.7km/h 9mph /  14.5km/h 90% 0in /  0.0mm 0 W/m2
02:03 34.3 °F /  1.3 °C 31.5 °F /  -0.3 °C 29.9in /  1013.2hPa West 2mph /  3.2km/h 4mph /  6.4km/h 89% 0in /  0.0mm 0 W/m2
02:08 34.3 °F /  1.3 °C 31.5 °F /  -0.3 °C 29.9in /  1013.2hPa SW 2mph /  3.2km/h 8mph /  12.9km/h 89% 0in /  0.0mm 0 W/m2
02:13 34.3 °F /  1.3 °C 31.5 °F /  -0.3 °C 29.9in /  1013.2hPa West 2mph /  3.2km/h 7mph /  11.3km/h 89% 0in /  0.0mm 0 W/m2
02:18 34.2 °F /  1.2 °C 31.3 °F /  -0.4 °C 29.9in /  1013.2hPa West 0.9mph /  1.4km/h 3mph /  4.8km/h 89% 0in /  0.0mm 0 W/m2
02:23 34 °F /  1.1 °C 31.1 °F /  -0.5 °C 29.9in /  1013.2hPa WSW 2mph /  3.2km/h 7mph /  11.3km/h 89% 0in /  0.0mm 0 W/m2
02:28 34 °F /  1.1 °C 31.1 °F /  -0.5 °C 29.9in /  1013.2hPa West 0.9mph /  1.4km/h 2mph /  3.2km/h 89% 0in /  0.0mm 0 W/m2
02:33 33.6 °F /  0.9 °C 30.7 °F /  -0.7 °C 29.9in /  1013.2hPa Calm   7mph /  11.3km/h 89% 0in /  0.0mm 0 W/m2
02:38 33.4 °F /  0.8 °C 30.6 °F /  -0.8 °C 29.9in /  1013.2hPa Calm   1mph /  1.6km/h 89% 0in /  0.0mm 0 W/m2
02:43 33.3 °F /  0.7 °C 30.6 °F /  -0.8 °C 29.9in /  1013.2hPa SW 0.9mph /  1.4km/h 1mph /  1.6km/h 90% 0in /  0.0mm 0 W/m2
02:48 33.3 °F /  0.7 °C 30.6 °F /  -0.8 °C 29.9in /  1013.2hPa Calm   2mph /  3.2km/h 90% 0in /  0.0mm 0 W/m2
02:53 33.1 °F /  0.6 °C 30.4 °F /  -0.9 °C 29.9in /  1013.5hPa Calm   2mph /  3.2km/h 90% 0in /  0.0mm 0 W/m2
02:58 32.9 °F /  0.5 °C 30.4 °F /  -0.9 °C 29.9in /  1013.2hPa Calm   2mph /  3.2km/h 90% 0in /  0.0mm 0 W/m2
03:03 32.7 °F /  0.4 °C 30.4 °F /  -0.9 °C 29.9in /  1013.2hPa Calm   1mph /  1.6km/h 91% 0in /  0.0mm 0 W/m2
03:08 32.5 °F /  0.3 °C 30.2 °F /  -1 °C 29.9in /  1013.5hPa Calm   1mph /  1.6km/h 91% 0in /  0.0mm 0 W/m2
03:13 32.5 °F /  0.3 °C 30.2 °F /  -1 °C 29.9in /  1013.5hPa Calm     91% 0in /  0.0mm 0 W/m2
03:18 32.4 °F /  0.2 °C 30 °F /  -1.1 °C 29.9in /  1013.5hPa Calm     91% 0in /  0.0mm 0 W/m2
03:23 32.2 °F /  0.1 °C 29.8 °F /  -1.2 °C 29.9in /  1013.5hPa Calm     91% 0in /  0.0mm 0 W/m2
03:28 32.2 °F /  0.1 °C 30.2 °F /  -1 °C 29.9in /  1013.5hPa South 0.9mph /  1.4km/h 2mph /  3.2km/h 92% 0in /  0.0mm 0 W/m2
03:33 32 °F /  0 °C 30 °F /  -1.1 °C 29.9in /  1013.5hPa Calm     92% 0in /  0.0mm 0 W/m2
03:38 31.8 °F /  -0.1 °C 29.8 °F /  -1.2 °C 29.9in /  1013.5hPa Calm   2mph /  3.2km/h 92% 0in /  0.0mm 0 W/m2
03:43 31.6 °F /  -0.2 °C 29.7 °F /  -1.3 °C 29.9in /  1013.5hPa Calm   1mph /  1.6km/h 92% 0in /  0.0mm 0 W/m2
03:49 31.6 °F /  -0.2 °C 29.7 °F /  -1.3 °C 29.9in /  1013.5hPa SSE 0.9mph /  1.4km/h 2mph /  3.2km/h 92% 0in /  0.0mm 0 W/m2
03:54 31.5 °F /  -0.3 °C 29.5 °F /  -1.4 °C 29.9in /  1013.9hPa SSE 0.9mph /  1.4km/h 2mph /  3.2km/h 92% 0in /  0.0mm 0 W/m2
03:59 31.5 °F /  -0.3 °C 29.7 °F /  -1.3 °C 29.9in /  1013.5hPa SW 0.9mph /  1.4km/h 3mph /  4.8km/h 93% 0in /  0.0mm 0 W/m2
04:04 31.6 °F /  -0.2 °C 29.8 °F /  -1.2 °C 29.9in /  1013.5hPa SE 2mph /  3.2km/h 3mph /  4.8km/h 93% 0in /  0.0mm 0 W/m2
04:09 31.6 °F /  -0.2 °C 29.8 °F /  -1.2 °C 29.9in /  1013.5hPa Calm   2mph /  3.2km/h 93% 0in /  0.0mm 0 W/m2
04:14 32 °F /  0 °C 30.2 °F /  -1 °C 29.9in /  1013.5hPa WSW 2mph /  3.2km/h 5mph /  8km/h 93% 0in /  0.0mm 0 W/m2
04:19 32.4 °F /  0.2 °C 30.6 °F /  -0.8 °C 29.9in /  1013.5hPa Calm   2mph /  3.2km/h 93% 0in /  0.0mm 0 W/m2
04:24 32.5 °F /  0.3 °C 30.9 °F /  -0.6 °C 29.9in /  1013.5hPa SW 0.9mph /  1.4km/h 7mph /  11.3km/h 94% 0in /  0.0mm 0 W/m2
04:29 32.7 °F /  0.4 °C 30.9 °F /  -0.6 °C 29.9in /  1013.5hPa WSW 2.9mph /  4.7km/h 6mph /  9.7km/h 93% 0in /  0.0mm 0 W/m2
04:34 33.1 °F /  0.6 °C 31.3 °F /  -0.4 °C 29.9in /  1013.5hPa WSW 0.9mph /  1.4km/h 6mph /  9.7km/h 93% 0in /  0.0mm 0 W/m2
04:39 33.3 °F /  0.7 °C 31.5 °F /  -0.3 °C 29.9in /  1013.5hPa WSW 2mph /  3.2km/h 4mph /  6.4km/h 93% 0in /  0.0mm 0 W/m2
04:44 33.3 °F /  0.7 °C 31.5 °F /  -0.3 °C 29.9in /  1013.5hPa WSW 2mph /  3.2km/h 7mph /  11.3km/h 93% 0in /  0.0mm 0 W/m2
04:49 33.4 °F /  0.8 °C 31.6 °F /  -0.2 °C 29.9in /  1013.5hPa Calm   4mph /  6.4km/h 93% 0in /  0.0mm 0 W/m2
04:54 33.4 °F /  0.8 °C 31.3 °F /  -0.4 °C 29.9in /  1013.5hPa West 2.9mph /  4.7km/h 10mph /  16.1km/h 92% 0in /  0.0mm 0 W/m2
04:59 33.6 °F /  0.9 °C 31.5 °F /  -0.3 °C 29.9in /  1013.5hPa WSW 2.9mph /  4.7km/h 9mph /  14.5km/h 92% 0in /  0.0mm 0 W/m2
05:04 33.6 °F /  0.9 °C 31.5 °F /  -0.3 °C 29.9in /  1013.5hPa WNW 2mph /  3.2km/h 4mph /  6.4km/h 92% 0in /  0.0mm 0 W/m2
05:09 33.6 °F /  0.9 °C 31.5 °F /  -0.3 °C 29.9in /  1013.5hPa WNW 4mph /  6.4km/h 9mph /  14.5km/h 92% 0in /  0.0mm 0 W/m2
05:14 33.6 °F /  0.9 °C 31.5 °F /  -0.3 °C 29.9in /  1013.5hPa WNW 2.9mph /  4.7km/h 6mph /  9.7km/h 92% 0in /  0.0mm 0 W/m2
05:19 33.6 °F /  0.9 °C 31.5 °F /  -0.3 °C 29.9in /  1013.9hPa West 4mph /  6.4km/h 6mph /  9.7km/h 92% 0in /  0.0mm 0 W/m2
05:24 33.6 °F /  0.9 °C 31.5 °F /  -0.3 °C 29.9in /  1013.9hPa WNW 6.9mph /  11.1km/h 9mph /  14.5km/h 92% 0in /  0.0mm 0 W/m2
05:29 33.8 °F /  1 °C 31.6 °F /  -0.2 °C 29.9in /  1013.9hPa West 2.9mph /  4.7km/h 7mph /  11.3km/h 92% 0in /  0.0mm 0 W/m2
05:34 34 °F /  1.1 °C 31.8 °F /  -0.1 °C 29.9in /  1013.9hPa WNW 2.9mph /  4.7km/h 9mph /  14.5km/h 92% 0in /  0.0mm 0 W/m2
05:39 34 °F /  1.1 °C 31.6 °F /  -0.2 °C 29.9in /  1013.5hPa Calm   5mph /  8km/h 91% 0in /  0.0mm 0 W/m2
05:44 34.2 °F /  1.2 °C 31.8 °F /  -0.1 °C 29.9in /  1013.9hPa West 0.9mph /  1.4km/h 5mph /  8km/h 91% 0in /  0.0mm 0 W/m2
05:49 34.2 °F /  1.2 °C 31.8 °F /  -0.1 °C 29.9in /  1013.9hPa WNW 2mph /  3.2km/h 4mph /  6.4km/h 91% 0in /  0.0mm 0 W/m2
05:54 34.2 °F /  1.2 °C 31.8 °F /  -0.1 °C 29.9in /  1013.9hPa Calm   2mph /  3.2km/h 91% 0in /  0.0mm 0 W/m2
05:59 34.2 °F /  1.2 °C 31.8 °F /  -0.1 °C 29.9in /  1013.9hPa WNW 2mph /  3.2km/h 4mph /  6.4km/h 91% 0in /  0.0mm 0 W/m2
06:04 34.3 °F /  1.3 °C 32 °F /  0 °C 29.9in /  1013.9hPa NNW 0.9mph /  1.4km/h 2mph /  3.2km/h 91% 0in /  0.0mm 0 W/m2
06:09 34.3 °F /  1.3 °C 32 °F /  0 °C 29.9in /  1013.9hPa NW 4.9mph /  7.9km/h 5mph /  8km/h 91% 0in /  0.0mm 0 W/m2
06:14 34.3 °F /  1.3 °C 32 °F /  0 °C 29.9in /  1013.9hPa WNW 2.9mph /  4.7km/h 5mph /  8km/h 91% 0in /  0.0mm 0 W/m2
06:19 34.3 °F /  1.3 °C 31.6 °F /  -0.2 °C 29.9in /  1013.9hPa Calm   2mph /  3.2km/h 90% 0in /  0.0mm 0 W/m2
06:24 34.3 °F /  1.3 °C 31.6 °F /  -0.2 °C 29.9in /  1013.9hPa WSW 0.9mph /  1.4km/h 3mph /  4.8km/h 90% 0in /  0.0mm 0 W/m2
06:29 34.3 °F /  1.3 °C 31.6 °F /  -0.2 °C 29.9in /  1013.9hPa Calm   5mph /  8km/h 90% 0in /  0.0mm 0 W/m2
06:34 34.3 °F /  1.3 °C 31.6 °F /  -0.2 °C 29.9in /  1013.9hPa West 0.9mph /  1.4km/h 2mph /  3.2km/h 90% 0in /  0.0mm 0 W/m2
06:39 34.3 °F /  1.3 °C 31.6 °F /  -0.2 °C 29.9in /  1013.9hPa Calm   1mph /  1.6km/h 90% 0in /  0.0mm 0 W/m2
06:44 34.3 °F /  1.3 °C 32 °F /  0 °C 29.9in /  1013.9hPa West 0.9mph /  1.4km/h 4mph /  6.4km/h 91% 0in /  0.0mm 0 W/m2
06:49 34.3 °F /  1.3 °C 32 °F /  0 °C 29.9in /  1013.9hPa Calm   2mph /  3.2km/h 91% 0in /  0.0mm 0 W/m2
06:54 34.3 °F /  1.3 °C 32 °F /  0 °C 29.9in /  1013.9hPa West 2.9mph /  4.7km/h 6mph /  9.7km/h 91% 0in /  0.0mm 0 W/m2
06:59 34.3 °F /  1.3 °C 32 °F /  0 °C 29.9in /  1013.9hPa West 4mph /  6.4km/h 4mph /  6.4km/h 91% 0in /  0.0mm 0 W/m2
07:04 34.3 °F /  1.3 °C 32 °F /  0 °C 29.9in /  1013.9hPa Calm     91% 0in /  0.0mm 0 W/m2
07:09 34.2 °F /  1.2 °C 31.8 °F /  -0.1 °C 30in /  1014.2hPa Calm   1mph /  1.6km/h 91% 0in /  0.0mm 0 W/m2
07:14 34.3 °F /  1.3 °C 32 °F /  0 °C 30in /  1014.2hPa North 0.9mph /  1.4km/h 3mph /  4.8km/h 91% 0in /  0.0mm 0 W/m2
07:19 34.2 °F /  1.2 °C 31.8 °F /  -0.1 °C 30in /  1014.6hPa WSW 0.9mph /  1.4km/h 2mph /  3.2km/h 91% 0in /  0.0mm 0 W/m2
07:24 34.3 °F /  1.3 °C 31.6 °F /  -0.2 °C 30in /  1014.6hPa WNW 0.9mph /  1.4km/h 3mph /  4.8km/h 90% 0in /  0.0mm 0 W/m2
07:29 34.3 °F /  1.3 °C 32 °F /  0 °C 30in /  1014.6hPa WNW 2mph /  3.2km/h 3mph /  4.8km/h 91% 0in /  0.0mm 0 W/m2
07:34 34.3 °F /  1.3 °C 32 °F /  0 °C 30in /  1014.6hPa Calm   3mph /  4.8km/h 91% 0in /  0.0mm 0 W/m2
07:39 34.3 °F /  1.3 °C 32 °F /  0 °C 30in /  1014.6hPa Calm   2mph /  3.2km/h 91% 0in /  0.0mm 0 W/m2
07:44 34.3 °F /  1.3 °C 32 °F /  0 °C 30in /  1014.6hPa Calm   2mph /  3.2km/h 91% 0in /  0.0mm 0 W/m2
07:49 34.3 °F /  1.3 °C 32 °F /  0 °C 30in /  1014.6hPa Calm     91% 0in /  0.0mm 0 W/m2
07:54 34.3 °F /  1.3 °C 32 °F /  0 °C 30in /  1014.6hPa WNW 2mph /  3.2km/h 4mph /  6.4km/h 91% 0in /  0.0mm 0 W/m2
07:59 34.3 °F /  1.3 °C 32 °F /  0 °C 30in /  1014.6hPa WNW 0.9mph /  1.4km/h 4mph /  6.4km/h 91% 0in /  0.0mm 0 W/m2
Juneau County Weather
Compliments of Weather Underground - 2 mb